Time;durP1;ratioP1;P1;durP2;ratioP2;P2;SDS_P1;SDS_P2;PMS_P1;PMS_P2;Temp;Humidity;BMP_temperature;BMP_pressure;BME280_temperature;BME280_humidity;BME280_pressure;Samples;Min_cycle;Max_cycle;Signal;HPM_P1;HPM_P2
2022/01/15 00:00:42;;;;;;;;;;;-1.20;99.90;;;;;;5066940;28;19920;-73
2022/01/15 00:03:11;;;;;;;;;;;-1.20;99.90;;;;;;5066874;28;19979;-73
2022/01/15 00:05:38;;;;;;;;;;;-1.20;99.90;;;;;;5066464;28;19952;-73
2022/01/15 00:08:05;;;;;;;;;;;-1.20;99.90;;;;;;5066929;28;19928;-73
2022/01/15 00:10:31;;;;;;;;;;;-1.20;99.90;;;;;;5066696;28;19928;-73
2022/01/15 00:12:59;;;;;;;;;;;-1.30;99.90;;;;;;5066535;28;19920;-73
2022/01/15 00:15:29;;;;;;;;;;;-1.20;99.90;;;;;;5066337;28;19927;-73
2022/01/15 00:17:59;;;;;;;;;;;-1.20;99.90;;;;;;5066437;28;19960;-73
2022/01/15 00:20:29;;;;;;;;;;;-1.20;99.90;;;;;;5066762;28;19987;-73
2022/01/15 00:22:56;;;;;;;;;;;-1.20;99.90;;;;;;5066360;28;19921;-74
2022/01/15 00:25:24;;;;;;;;;;;-1.20;99.90;;;;;;5066043;28;19920;-74
2022/01/15 00:27:50;;;;;;;;;;;-1.20;99.90;;;;;;5066269;28;19927;-73
2022/01/15 00:30:17;;;;;;;;;;;-1.20;99.90;;;;;;5066188;28;19921;-74
2022/01/15 00:32:45;;;;;;;;;;;-1.20;99.90;;;;;;5066178;28;19927;-73
2022/01/15 00:35:13;;;;;;;;;;;-1.20;99.90;;;;;;5066137;28;19956;-73
2022/01/15 00:37:41;;;;;;;;;;;-1.20;99.90;;;;;;5065852;28;19927;-74
2022/01/15 00:40:09;;;;;;;;;;;-1.10;99.90;;;;;;5066149;28;19927;-73
2022/01/15 00:42:37;;;;;;;;;;;-1.10;99.90;;;;;;5065856;28;19927;-73
2022/01/15 00:45:04;;;;;;;;;;;-1.10;99.90;;;;;;5065635;28;19921;-71
2022/01/15 00:47:31;;;;;;;;;;;-1.00;99.90;;;;;;5065787;28;19927;-71
2022/01/15 00:49:58;;;;;;;;;;;-1.00;99.90;;;;;;5065909;28;19920;-73
2022/01/15 00:52:25;;;;;;;;;;;-1.00;99.90;;;;;;5065938;28;20116;-74
2022/01/15 00:54:53;;;;;;;;;;;-1.00;99.90;;;;;;5065591;28;19924;-73
2022/01/15 00:57:21;;;;;;;;;;;-1.00;99.90;;;;;;5065717;28;20205;-73
2022/01/15 00:59:47;;;;;;;;;;;-1.00;99.90;;;;;;5065212;28;19932;-73
2022/01/15 01:02:14;;;;;;;;;;;-0.90;99.90;;;;;;5065273;28;19929;-73
2022/01/15 01:04:41;;;;;;;;;;;-0.90;99.90;;;;;;5065249;28;19921;-73
2022/01/15 01:07:07;;;;;;;;;;;-1.00;99.90;;;;;;5065641;28;19959;-73
2022/01/15 01:09:49;;;;;;;;;;;-1.00;99.90;;;;;;5065493;28;19921;-73
2022/01/15 01:12:28;;;;;;;;;;;-0.90;99.90;;;;;;5065385;28;20235;-73
2022/01/15 01:20:28;;;;;;;;;;;-0.80;99.90;;;;;;5065455;28;19955;-74
2022/01/15 01:22:57;;;;;;;;;;;-0.80;99.90;;;;;;5065274;28;19943;-73
2022/01/15 01:25:27;;;;;;;;;;;-0.80;99.90;;;;;;5065040;28;19921;-73
2022/01/15 01:28:03;;;;;;;;;;;-0.80;99.90;;;;;;5065528;28;19983;-73
2022/01/15 01:30:35;;;;;;;;;;;-0.80;99.90;;;;;;5065212;28;19984;-73
2022/01/15 01:33:15;;;;;;;;;;;-0.70;99.90;;;;;;5065067;28;19921;-73
2022/01/15 01:35:45;;;;;;;;;;;-0.70;99.90;;;;;;5065106;28;19985;-74
2022/01/15 01:38:18;;;;;;;;;;;-0.70;99.90;;;;;;5064834;28;19927;-73
2022/01/15 01:40:49;;;;;;;;;;;-0.70;99.90;;;;;;5065004;28;19928;-73
2022/01/15 01:46:13;;;;;;;;;;;-0.70;99.90;;;;;;5047882;28;20209;-73
2022/01/15 01:48:40;;;;;;;;;;;-0.70;99.90;;;;;;5064772;28;20203;-73
2022/01/15 01:51:07;;;;;;;;;;;-0.60;99.90;;;;;;5064601;28;19927;-74
2022/01/15 01:53:34;;;;;;;;;;;-0.60;99.90;;;;;;5064545;28;19921;-73
2022/01/15 01:56:01;;;;;;;;;;;-0.60;99.90;;;;;;5064405;28;19921;-74
2022/01/15 01:58:28;;;;;;;;;;;-0.60;99.90;;;;;;5064396;28;19946;-73
2022/01/15 02:00:55;;;;;;;;;;;-0.60;99.90;;;;;;5064913;28;19924;-74
2022/01/15 02:03:22;;;;;;;;;;;-0.60;99.90;;;;;;5064446;28;19928;-71
2022/01/15 02:05:48;;;;;;;;;;;-0.60;99.90;;;;;;5064292;28;19921;-71
2022/01/15 02:08:16;;;;;;;;;;;-0.60;99.90;;;;;;5064236;28;19920;-71
2022/01/15 02:10:43;;;;;;;;;;;-0.50;99.90;;;;;;5063317;28;19984;-71
2022/01/15 02:13:11;;;;;;;;;;;-0.60;99.90;;;;;;5064268;28;20212;-71
2022/01/15 02:15:39;;;;;;;;;;;-0.60;99.90;;;;;;5063997;28;20105;-72
2022/01/15 02:18:06;;;;;;;;;;;-0.60;99.90;;;;;;5064295;28;20207;-72
2022/01/15 02:21:00;;;;;;;;;;;-0.60;99.90;;;;;;5064492;28;19927;-71
2022/01/15 02:23:34;;;;;;;;;;;-0.50;99.90;;;;;;5064405;28;20078;-72
2022/01/15 02:26:01;;;;;;;;;;;-0.50;99.90;;;;;;5063853;28;20205;-71
2022/01/15 02:28:29;;;;;;;;;;;-0.50;99.90;;;;;;5064002;28;19921;-71
2022/01/15 02:30:57;;;;;;;;;;;-0.50;99.90;;;;;;5063998;28;19988;-71
2022/01/15 02:33:23;;;;;;;;;;;-0.50;99.90;;;;;;5064063;28;19927;-71
2022/01/15 02:35:51;;;;;;;;;;;-0.50;99.90;;;;;;5063599;28;19921;-71
2022/01/15 02:38:18;;;;;;;;;;;-0.50;99.90;;;;;;5063647;28;20089;-72
2022/01/15 02:40:45;;;;;;;;;;;-0.50;99.90;;;;;;5063981;28;19920;-71
2022/01/15 02:43:14;;;;;;;;;;;-0.50;99.90;;;;;;5063800;28;19943;-72
2022/01/15 02:45:44;;;;;;;;;;;-0.40;99.90;;;;;;5063451;28;19921;-72
2022/01/15 02:48:11;;;;;;;;;;;-0.40;99.90;;;;;;5063509;28;19920;-72
2022/01/15 02:50:38;;;;;;;;;;;-0.40;99.90;;;;;;5063732;28;19928;-72
2022/01/15 02:53:06;;;;;;;;;;;-0.40;99.90;;;;;;5063786;28;19921;-72
2022/01/15 02:55:33;;;;;;;;;;;-0.40;99.90;;;;;;5063356;28;19921;-71
2022/01/15 02:57:59;;;;;;;;;;;-0.30;99.90;;;;;;5063327;28;19983;-71
2022/01/15 03:00:27;;;;;;;;;;;-0.30;99.90;;;;;;5064141;28;19927;-71
2022/01/15 03:02:53;;;;;;;;;;;-0.40;99.90;;;;;;5063754;28;19925;-71
2022/01/15 03:05:21;;;;;;;;;;;-0.30;99.90;;;;;;5063197;28;19927;-72
2022/01/15 03:07:47;;;;;;;;;;;-0.30;99.90;;;;;;5063344;28;19963;-71
2022/01/15 03:10:15;;;;;;;;;;;-0.30;99.90;;;;;;5063419;28;19924;-71
2022/01/15 03:12:42;;;;;;;;;;;-0.30;99.90;;;;;;5063380;28;19987;-71
2022/01/15 03:15:09;;;;;;;;;;;-0.20;99.90;;;;;;5062740;28;19936;-72
2022/01/15 03:17:36;;;;;;;;;;;-0.20;99.90;;;;;;5063432;28;19927;-71
2022/01/15 03:20:04;;;;;;;;;;;-0.20;99.90;;;;;;5063362;28;19920;-71
2022/01/15 03:22:30;;;;;;;;;;;-0.10;99.90;;;;;;5063431;28;19925;-71
2022/01/15 03:24:57;;;;;;;;;;;-0.10;99.90;;;;;;5062971;28;19927;-71
2022/01/15 03:27:25;;;;;;;;;;;-0.20;99.90;;;;;;5062975;28;19927;-72
2022/01/15 03:29:52;;;;;;;;;;;-0.20;99.90;;;;;;5063112;28;19984;-72
2022/01/15 03:32:19;;;;;;;;;;;-0.10;99.90;;;;;;5063058;28;20243;-71
2022/01/15 03:34:45;;;;;;;;;;;-0.10;99.90;;;;;;5062693;28;19920;-71
2022/01/15 03:37:12;;;;;;;;;;;-0.10;99.90;;;;;;5063141;28;20121;-72
2022/01/15 03:39:39;;;;;;;;;;;-0.10;99.90;;;;;;5062842;28;19927;-72
2022/01/15 03:42:11;;;;;;;;;;;-0.10;99.90;;;;;;5063051;28;19920;-72
2022/01/15 03:44:39;;;;;;;;;;;-0.10;99.90;;;;;;5062801;28;19952;-71
2022/01/15 03:47:05;;;;;;;;;;;-0.10;99.90;;;;;;5063087;28;19921;-72
2022/01/15 03:49:32;;;;;;;;;;;0.00;99.90;;;;;;5063093;28;19921;-71
2022/01/15 03:51:58;;;;;;;;;;;0.00;99.90;;;;;;5062776;28;19925;-72
2022/01/15 03:54:25;;;;;;;;;;;0.00;99.90;;;;;;5062737;28;19943;-72
2022/01/15 03:56:52;;;;;;;;;;;0.00;99.90;;;;;;5062772;28;19921;-71
2022/01/15 03:59:19;;;;;;;;;;;-0.10;99.90;;;;;;5062658;28;20235;-72
2022/01/15 04:01:47;;;;;;;;;;;-0.10;99.90;;;;;;5062858;28;19992;-72
2022/01/15 04:04:13;;;;;;;;;;;0.00;99.90;;;;;;5062837;28;19936;-71
2022/01/15 04:06:41;;;;;;;;;;;0.00;99.90;;;;;;5062664;28;19925;-71
2022/01/15 04:09:08;;;;;;;;;;;0.00;99.90;;;;;;5062901;28;20239;-72
2022/01/15 04:11:35;;;;;;;;;;;0.00;99.90;;;;;;5062868;28;19920;-71
2022/01/15 04:14:01;;;;;;;;;;;0.00;99.90;;;;;;5062239;28;19921;-74
2022/01/15 04:16:28;;;;;;;;;;;0.00;99.90;;;;;;5062690;28;19921;-72
2022/01/15 04:18:56;;;;;;;;;;;0.10;99.90;;;;;;5062689;28;19925;-72
2022/01/15 04:21:23;;;;;;;;;;;0.00;99.90;;;;;;5062751;28;20200;-71
2022/01/15 04:23:50;;;;;;;;;;;0.00;99.90;;;;;;5062396;28;19927;-71
2022/01/15 04:26:18;;;;;;;;;;;0.00;99.90;;;;;;5062498;28;19920;-71
2022/01/15 04:28:45;;;;;;;;;;;0.00;99.90;;;;;;5062696;28;19927;-72
2022/01/15 04:31:11;;;;;;;;;;;0.00;99.90;;;;;;5062762;28;19943;-72
2022/01/15 04:33:39;;;;;;;;;;;0.00;99.90;;;;;;5063323;28;19921;-72
2022/01/15 04:36:07;;;;;;;;;;;0.00;99.90;;;;;;5066095;28;19924;-72
2022/01/15 04:38:37;;;;;;;;;;;0.10;99.90;;;;;;5065930;28;19920;-70
2022/01/15 04:41:04;;;;;;;;;;;0.00;99.90;;;;;;5066072;28;20148;-72
2022/01/15 04:43:30;;;;;;;;;;;0.00;99.90;;;;;;5065872;28;19924;-72
2022/01/15 04:45:57;;;;;;;;;;;0.00;99.90;;;;;;5066088;28;19921;-72
2022/01/15 04:48:24;;;;;;;;;;;0.00;99.90;;;;;;5065886;28;19924;-72
2022/01/15 04:50:50;;;;;;;;;;;-0.10;99.90;;;;;;5065873;28;19928;-72
2022/01/15 04:53:18;;;;;;;;;;;-0.10;99.90;;;;;;5065933;28;19924;-72
2022/01/15 04:55:45;;;;;;;;;;;-0.10;99.90;;;;;;5065322;28;19927;-72
2022/01/15 04:58:12;;;;;;;;;;;-0.10;99.90;;;;;;5065810;28;19928;-72
2022/01/15 05:00:38;;;;;;;;;;;0.00;99.90;;;;;;5065886;28;19988;-72
2022/01/15 05:03:05;;;;;;;;;;;0.00;99.90;;;;;;5065614;28;19920;-72
2022/01/15 05:05:32;;;;;;;;;;;0.00;99.90;;;;;;5065068;28;19925;-72
2022/01/15 05:07:58;;;;;;;;;;;0.10;99.90;;;;;;5065389;28;20224;-72
2022/01/15 05:10:28;;;;;;;;;;;0.10;99.90;;;;;;5065766;28;19921;-71
2022/01/15 05:12:56;;;;;;;;;;;0.10;99.90;;;;;;5065888;28;20213;-72
2022/01/15 05:15:23;;;;;;;;;;;0.10;99.90;;;;;;5065382;28;19963;-72
2022/01/15 05:17:51;;;;;;;;;;;0.10;99.90;;;;;;5064893;28;19921;-72
2022/01/15 05:20:18;;;;;;;;;;;0.20;99.90;;;;;;5065257;28;20144;-71
2022/01/15 05:22:45;;;;;;;;;;;0.10;99.90;;;;;;5065349;28;19928;-72
2022/01/15 05:25:14;;;;;;;;;;;0.10;99.90;;;;;;5065049;28;19928;-72
2022/01/15 05:27:42;;;;;;;;;;;0.10;99.90;;;;;;5065170;28;19976;-72
2022/01/15 05:30:09;;;;;;;;;;;0.10;99.90;;;;;;5065303;28;20220;-72
2022/01/15 05:32:36;;;;;;;;;;;0.10;99.90;;;;;;5064999;28;19921;-72
2022/01/15 05:35:03;;;;;;;;;;;0.10;99.90;;;;;;5064725;28;19921;-71
2022/01/15 05:37:30;;;;;;;;;;;0.10;99.90;;;;;;5065070;28;19921;-72
2022/01/15 05:39:57;;;;;;;;;;;0.10;99.90;;;;;;5065269;28;19929;-72
2022/01/15 05:42:24;;;;;;;;;;;0.10;99.90;;;;;;5065015;28;19920;-72
2022/01/15 05:44:52;;;;;;;;;;;0.10;99.90;;;;;;5064320;28;19927;-72
2022/01/15 05:47:18;;;;;;;;;;;0.10;99.90;;;;;;5064911;28;19921;-72
2022/01/15 05:49:45;;;;;;;;;;;0.10;99.90;;;;;;5064730;28;19927;-72
2022/01/15 05:52:11;;;;;;;;;;;0.10;99.90;;;;;;5064964;28;19927;-72
2022/01/15 05:54:38;;;;;;;;;;;0.10;99.90;;;;;;5064368;28;20213;-71
2022/01/15 05:57:05;;;;;;;;;;;0.10;99.90;;;;;;5064485;28;20030;-71
2022/01/15 05:59:31;;;;;;;;;;;0.10;99.90;;;;;;5064647;28;19921;-72
2022/01/15 06:01:59;;;;;;;;;;;0.30;99.90;;;;;;5064381;28;20230;-72
2022/01/15 06:04:26;;;;;;;;;;;0.20;99.90;;;;;;5064287;28;19921;-72
2022/01/15 06:06:52;;;;;;;;;;;0.20;99.90;;;;;;5064525;28;19959;-71
2022/01/15 06:09:19;;;;;;;;;;;0.20;99.90;;;;;;5063845;28;19920;-72
2022/01/15 06:11:45;;;;;;;;;;;0.20;99.90;;;;;;5064339;28;19928;-72
2022/01/15 06:14:12;;;;;;;;;;;0.20;99.90;;;;;;5064529;28;19928;-72
2022/01/15 06:16:39;;;;;;;;;;;0.20;99.90;;;;;;5064137;28;19921;-72
2022/01/15 06:19:06;;;;;;;;;;;0.20;99.90;;;;;;5064016;28;19920;-72
2022/01/15 06:21:33;;;;;;;;;;;0.30;99.90;;;;;;5063998;28;19921;-71
2022/01/15 06:24:00;;;;;;;;;;;0.30;99.90;;;;;;5063874;28;19928;-72
2022/01/15 06:26:26;;;;;;;;;;;0.30;99.90;;;;;;5064125;28;19931;-71
2022/01/15 06:28:53;;;;;;;;;;;0.40;99.90;;;;;;5064163;28;19924;-71
2022/01/15 06:31:19;;;;;;;;;;;0.40;99.90;;;;;;5063888;28;19924;-72
2022/01/15 06:33:46;;;;;;;;;;;0.40;99.90;;;;;;5063651;28;19920;-72
2022/01/15 06:36:14;;;;;;;;;;;0.30;99.90;;;;;;5063952;28;19921;-72
2022/01/15 06:38:40;;;;;;;;;;;0.30;99.90;;;;;;5064221;28;19932;-72
2022/01/15 06:41:07;;;;;;;;;;;0.30;99.90;;;;;;5063920;28;19928;-72
2022/01/15 06:43:33;;;;;;;;;;;0.30;99.90;;;;;;5063452;28;19942;-72
2022/01/15 06:46:00;;;;;;;;;;;0.30;99.90;;;;;;5063677;28;19921;-71
2022/01/15 06:48:29;;;;;;;;;;;0.30;99.90;;;;;;5063664;28;19921;-72
2022/01/15 06:50:55;;;;;;;;;;;0.30;99.90;;;;;;5063928;28;20101;-72
2022/01/15 06:53:23;;;;;;;;;;;0.30;99.90;;;;;;5060746;28;19924;-71
2022/01/15 06:55:52;;;;;;;;;;;0.40;99.90;;;;;;5063722;28;19921;-72
2022/01/15 06:58:19;;;;;;;;;;;0.40;99.90;;;;;;5064209;28;19927;-71
2022/01/15 07:00:45;;;;;;;;;;;0.40;99.90;;;;;;5064276;28;19928;-72
2022/01/15 07:03:12;;;;;;;;;;;0.50;99.90;;;;;;5058481;28;19924;-71
2022/01/15 07:05:39;;;;;;;;;;;0.50;99.90;;;;;;5043136;28;20331;-72
2022/01/15 07:08:05;;;;;;;;;;;0.50;99.90;;;;;;5052504;28;19920;-72
2022/01/15 07:10:33;;;;;;;;;;;0.50;99.90;;;;;;5063365;28;19921;-71
2022/01/15 07:13:00;;;;;;;;;;;0.50;99.90;;;;;;5063381;28;19921;-72
2022/01/15 07:15:26;;;;;;;;;;;0.50;99.90;;;;;;5063222;28;19928;-72
2022/01/15 07:17:53;;;;;;;;;;;0.50;99.90;;;;;;5063271;28;19927;-72
2022/01/15 07:20:20;;;;;;;;;;;0.60;99.90;;;;;;5063015;28;19928;-72
2022/01/15 07:22:47;;;;;;;;;;;0.60;99.90;;;;;;5063320;28;20293;-72
2022/01/15 07:25:14;;;;;;;;;;;0.50;99.90;;;;;;5061043;28;19927;-72
2022/01/15 07:27:42;;;;;;;;;;;0.50;99.90;;;;;;5046113;28;19921;-72
2022/01/15 07:30:10;;;;;;;;;;;0.50;99.90;;;;;;5043254;28;19928;-72
2022/01/15 07:32:37;;;;;;;;;;;0.50;99.90;;;;;;5052595;28;19964;-72
2022/01/15 07:35:04;;;;;;;;;;;0.50;99.90;;;;;;5042917;28;19975;-71
2022/01/15 07:37:31;;;;;;;;;;;0.50;99.90;;;;;;5043300;28;19921;-71
2022/01/15 07:39:58;;;;;;;;;;;0.50;99.90;;;;;;5043453;28;19921;-74
2022/01/15 07:42:24;;;;;;;;;;;0.60;99.90;;;;;;5043339;28;19929;-72
2022/01/15 07:44:52;;;;;;;;;;;0.60;99.90;;;;;;5058866;28;19920;-73
2022/01/15 07:47:19;;;;;;;;;;;0.60;99.90;;;;;;5063334;28;19928;-75
2022/01/15 07:49:45;;;;;;;;;;;0.50;99.90;;;;;;5062859;28;19921;-74
2022/01/15 07:52:12;;;;;;;;;;;0.50;99.90;;;;;;5063069;28;19921;-73
2022/01/15 07:54:39;;;;;;;;;;;0.50;99.90;;;;;;5062707;28;20152;-72
2022/01/15 07:57:05;;;;;;;;;;;0.50;99.90;;;;;;5062653;28;20144;-73
2022/01/15 07:59:33;;;;;;;;;;;0.50;99.90;;;;;;5062795;28;20230;-73
2022/01/15 08:02:01;;;;;;;;;;;0.50;99.90;;;;;;5063031;28;20003;-72
2022/01/15 08:04:27;;;;;;;;;;;0.60;99.90;;;;;;5062540;28;20243;-71
2022/01/15 08:06:54;;;;;;;;;;;0.60;99.90;;;;;;5062363;28;20205;-71
2022/01/15 08:09:21;;;;;;;;;;;0.60;99.90;;;;;;5065048;28;19992;-71
2022/01/15 08:11:47;;;;;;;;;;;0.60;99.90;;;;;;5066886;28;19921;-70
2022/01/15 08:14:14;;;;;;;;;;;0.60;99.90;;;;;;5066560;28;20116;-70
2022/01/15 08:16:40;;;;;;;;;;;0.70;99.90;;;;;;5066525;28;19920;-70
2022/01/15 08:19:08;;;;;;;;;;;0.60;99.90;;;;;;5066514;28;20094;-71
2022/01/15 08:21:35;;;;;;;;;;;0.70;99.90;;;;;;5066487;28;19921;-70
2022/01/15 08:24:01;;;;;;;;;;;0.80;99.90;;;;;;5065939;28;19927;-70
2022/01/15 08:26:28;;;;;;;;;;;0.80;99.90;;;;;;5066515;28;19921;-72
2022/01/15 08:28:56;;;;;;;;;;;0.80;99.90;;;;;;5066694;28;19924;-71
2022/01/15 08:31:22;;;;;;;;;;;0.80;99.90;;;;;;5065293;28;20006;-72
2022/01/15 08:33:49;;;;;;;;;;;0.90;99.90;;;;;;5065350;28;19921;-72
2022/01/15 08:36:17;;;;;;;;;;;0.80;99.90;;;;;;5065732;28;19936;-72
2022/01/15 08:38:44;;;;;;;;;;;0.90;99.90;;;;;;5066388;28;19925;-72
2022/01/15 08:41:13;;;;;;;;;;;0.90;99.90;;;;;;5066118;28;20146;-72
2022/01/15 08:43:39;;;;;;;;;;;0.90;99.90;;;;;;5065881;28;20132;-72
2022/01/15 08:46:06;;;;;;;;;;;0.90;99.90;;;;;;5066033;28;19989;-72
2022/01/15 08:48:33;;;;;;;;;;;0.80;99.90;;;;;;5065940;28;19936;-73
2022/01/15 08:50:59;;;;;;;;;;;0.90;99.90;;;;;;5065928;28;19932;-72
2022/01/15 08:53:27;;;;;;;;;;;0.90;99.90;;;;;;5065913;28;19925;-72
2022/01/15 08:55:54;;;;;;;;;;;0.90;99.90;;;;;;5065557;28;19927;-72
2022/01/15 08:58:20;;;;;;;;;;;1.00;99.90;;;;;;5066242;28;20235;-73
2022/01/15 09:00:47;;;;;;;;;;;1.10;99.90;;;;;;5065776;28;19959;-72
2022/01/15 09:03:14;;;;;;;;;;;1.10;99.90;;;;;;5065790;28;20150;-72
2022/01/15 09:05:41;;;;;;;;;;;1.10;99.90;;;;;;5064990;28;19921;-72
2022/01/15 09:08:08;;;;;;;;;;;1.20;99.90;;;;;;5065637;28;19928;-72
2022/01/15 09:10:41;;;;;;;;;;;1.10;99.90;;;;;;5066360;28;19921;-72
2022/01/15 09:13:08;;;;;;;;;;;1.10;99.90;;;;;;5065826;28;19925;-72
2022/01/15 09:15:35;;;;;;;;;;;1.20;99.90;;;;;;5065863;28;20090;-72
2022/01/15 09:18:01;;;;;;;;;;;1.20;99.90;;;;;;5066053;28;19921;-71
2022/01/15 09:20:28;;;;;;;;;;;1.30;99.90;;;;;;5065840;28;19927;-72
2022/01/15 09:22:54;;;;;;;;;;;1.30;99.90;;;;;;5065444;28;19921;-74
2022/01/15 09:25:21;;;;;;;;;;;1.30;99.90;;;;;;5064885;28;19927;-74
2022/01/15 09:30:33;;;;;;;;;;;1.40;99.90;;;;;;5065116;28;20251;-74
2022/01/15 09:33:02;;;;;;;;;;;1.50;99.90;;;;;;5065396;28;19927;-74
2022/01/15 09:35:29;;;;;;;;;;;1.50;99.90;;;;;;5065042;28;19921;-74
2022/01/15 09:37:56;;;;;;;;;;;1.50;99.90;;;;;;5065053;28;19927;-74
2022/01/15 09:40:23;;;;;;;;;;;1.60;99.90;;;;;;5064822;28;20038;-74
2022/01/15 09:42:51;;;;;;;;;;;1.60;99.90;;;;;;5064932;28;19925;-74
2022/01/15 09:45:19;;;;;;;;;;;1.60;99.90;;;;;;5064563;28;19920;-74
2022/01/15 09:47:46;;;;;;;;;;;1.60;99.90;;;;;;5065082;28;19928;-74
2022/01/15 09:50:13;;;;;;;;;;;1.60;99.90;;;;;;5064979;28;20125;-74
2022/01/15 09:52:40;;;;;;;;;;;1.70;99.90;;;;;;5064735;28;19925;-74
2022/01/15 09:55:09;;;;;;;;;;;1.70;99.90;;;;;;5064950;28;19920;-72
2022/01/15 09:57:36;;;;;;;;;;;1.80;99.90;;;;;;5064473;28;19992;-74
2022/01/15 10:00:05;;;;;;;;;;;1.80;99.90;;;;;;5064795;28;19944;-74
2022/01/15 10:02:31;;;;;;;;;;;1.90;99.90;;;;;;5064743;28;19927;-74
2022/01/15 10:04:58;;;;;;;;;;;1.90;99.90;;;;;;5064134;28;19947;-74
2022/01/15 10:07:27;;;;;;;;;;;2.00;99.90;;;;;;5064220;28;20208;-74
2022/01/15 10:09:55;;;;;;;;;;;2.00;99.90;;;;;;5064468;28;19920;-74
2022/01/15 10:12:26;;;;;;;;;;;2.00;99.90;;;;;;5064407;28;19935;-74
2022/01/15 10:14:57;;;;;;;;;;;2.00;99.90;;;;;;5064094;28;20124;-74
2022/01/15 10:17:26;;;;;;;;;;;2.00;99.90;;;;;;5063946;28;19920;-74
2022/01/15 10:19:52;;;;;;;;;;;2.00;99.90;;;;;;5044322;28;19996;-74
2022/01/15 10:22:20;;;;;;;;;;;2.00;99.90;;;;;;5044202;28;20259;-74
2022/01/15 10:24:51;;;;;;;;;;;2.10;99.90;;;;;;5043819;28;19927;-74
2022/01/15 10:27:22;;;;;;;;;;;2.00;99.90;;;;;;5043574;28;19921;-74
2022/01/15 10:29:49;;;;;;;;;;;2.10;99.90;;;;;;5055168;28;19921;-74
2022/01/15 10:32:16;;;;;;;;;;;2.10;99.90;;;;;;5063457;28;19921;-74
2022/01/15 10:34:45;;;;;;;;;;;2.00;99.90;;;;;;5063564;28;20003;-74
2022/01/15 10:37:13;;;;;;;;;;;2.00;99.90;;;;;;5063821;28;19996;-74
2022/01/15 10:39:40;;;;;;;;;;;2.00;99.90;;;;;;5063281;28;20117;-74
2022/01/15 10:42:13;;;;;;;;;;;2.00;99.90;;;;;;5063708;28;19927;-72
2022/01/15 10:44:41;;;;;;;;;;;2.00;99.90;;;;;;5064096;28;19942;-74
2022/01/15 10:47:09;;;;;;;;;;;2.10;99.90;;;;;;5064040;28;19927;-74
2022/01/15 10:49:37;;;;;;;;;;;2.10;99.90;;;;;;5064432;28;19920;-72
2022/01/15 10:52:12;;;;;;;;;;;2.10;99.90;;;;;;5063604;28;19952;-73
2022/01/15 10:54:52;;;;;;;;;;;2.10;99.90;;;;;;5063036;28;19927;-72
2022/01/15 10:57:20;;;;;;;;;;;2.10;99.90;;;;;;5063569;28;19927;-73
2022/01/15 10:59:55;;;;;;;;;;;2.20;99.90;;;;;;5063510;28;20216;-72
2022/01/15 11:02:22;;;;;;;;;;;2.20;99.90;;;;;;5055760;28;19929;-72
2022/01/15 11:04:48;;;;;;;;;;;2.20;99.90;;;;;;5051480;28;19953;-72
2022/01/15 11:07:17;;;;;;;;;;;2.20;99.90;;;;;;5043422;28;19980;-74
2022/01/15 11:09:44;;;;;;;;;;;2.30;99.90;;;;;;5043643;28;20133;-73
2022/01/15 11:12:11;;;;;;;;;;;2.30;99.90;;;;;;5049935;28;19928;-72
2022/01/15 11:14:38;;;;;;;;;;;2.30;99.90;;;;;;5062821;28;19928;-72
2022/01/15 11:17:04;;;;;;;;;;;2.30;99.90;;;;;;5061783;28;20212;-72
2022/01/15 11:19:32;;;;;;;;;;;2.20;99.90;;;;;;5062327;28;19925;-72
2022/01/15 11:21:59;;;;;;;;;;;2.20;99.90;;;;;;5045518;28;19925;-74
2022/01/15 11:24:27;;;;;;;;;;;2.30;99.90;;;;;;5051678;28;19928;-71
2022/01/15 11:26:57;;;;;;;;;;;2.30;99.90;;;;;;5055293;28;20227;-72
2022/01/15 11:29:24;;;;;;;;;;;2.30;99.90;;;;;;5053885;28;19921;-72
2022/01/15 11:31:59;;;;;;;;;;;2.30;99.90;;;;;;5050819;28;19920;-72
2022/01/15 11:34:26;;;;;;;;;;;2.30;99.90;;;;;;5053138;28;19929;-73
2022/01/15 11:36:53;;;;;;;;;;;2.30;99.90;;;;;;5050777;28;19920;-69
2022/01/15 11:39:20;;;;;;;;;;;2.30;99.90;;;;;;5051952;28;19993;-72
2022/01/15 11:41:52;;;;;;;;;;;2.30;99.90;;;;;;5053124;28;20105;-72
2022/01/15 11:44:19;;;;;;;;;;;2.30;99.90;;;;;;5057419;28;19921;-72
2022/01/15 11:46:47;;;;;;;;;;;2.20;99.90;;;;;;5059095;28;19956;-73
2022/01/15 11:49:30;;;;;;;;;;;2.20;99.90;;;;;;5054934;28;19920;-73
2022/01/15 11:51:57;;;;;;;;;;;2.20;99.90;;;;;;5055149;28;19941;-72
2022/01/15 11:54:24;;;;;;;;;;;2.30;99.90;;;;;;5049519;28;19928;-73
2022/01/15 11:56:52;;;;;;;;;;;2.30;99.90;;;;;;5047032;28;19927;-73
2022/01/15 11:59:37;;;;;;;;;;;2.30;99.90;;;;;;5058235;28;19927;-72
2022/01/15 12:02:06;;;;;;;;;;;2.40;99.90;;;;;;5066417;28;20067;-73
2022/01/15 12:04:33;;;;;;;;;;;2.40;99.90;;;;;;5066648;28;19952;-73
2022/01/15 12:07:19;;;;;;;;;;;2.40;99.90;;;;;;5067206;28;19927;-73
2022/01/15 12:09:46;;;;;;;;;;;2.40;99.90;;;;;;5066890;28;19920;-73
2022/01/15 12:12:37;;;;;;;;;;;2.40;99.90;;;;;;5067290;28;19927;-73
2022/01/15 12:15:09;;;;;;;;;;;2.40;99.90;;;;;;5066872;28;19959;-73
2022/01/15 12:17:37;;;;;;;;;;;2.40;99.90;;;;;;5059066;28;19955;-73
2022/01/15 12:20:05;;;;;;;;;;;2.40;99.90;;;;;;5057398;28;19936;-73
2022/01/15 12:22:34;;;;;;;;;;;2.40;99.90;;;;;;5057385;28;19921;-73
2022/01/15 12:25:01;;;;;;;;;;;2.40;99.90;;;;;;5065581;28;19966;-72
2022/01/15 12:27:29;;;;;;;;;;;2.50;99.90;;;;;;5066028;28;20124;-75
2022/01/15 12:30:11;;;;;;;;;;;2.40;99.90;;;;;;5066499;28;20116;-73
2022/01/15 12:32:40;;;;;;;;;;;2.50;99.90;;;;;;5066442;28;19921;-73
2022/01/15 12:35:13;;;;;;;;;;;2.50;99.90;;;;;;5065151;28;19958;-73
2022/01/15 12:37:50;;;;;;;;;;;2.50;99.90;;;;;;5065938;28;20039;-73
2022/01/15 12:40:17;;;;;;;;;;;2.50;99.90;;;;;;5066560;28;19924;-73
2022/01/15 12:42:44;;;;;;;;;;;2.50;99.90;;;;;;5062568;28;19920;-73
2022/01/15 12:45:18;;;;;;;;;;;2.40;99.90;;;;;;5049970;28;19933;-73
2022/01/15 12:47:46;;;;;;;;;;;2.40;99.90;;;;;;5054879;28;19928;-73
2022/01/15 12:50:13;;;;;;;;;;;2.40;99.90;;;;;;5054192;28;19921;-76
2022/01/15 12:52:40;;;;;;;;;;;2.50;99.90;;;;;;5058892;28;19988;-73
2022/01/15 12:55:07;;;;;;;;;;;2.40;99.90;;;;;;5064993;28;19921;-73
2022/01/15 12:57:44;;;;;;;;;;;2.30;99.90;;;;;;5054670;28;19992;-73
2022/01/15 13:00:13;;;;;;;;;;;2.30;99.90;;;;;;5045755;28;19921;-73
2022/01/15 13:02:41;;;;;;;;;;;2.40;99.90;;;;;;5051774;28;20227;-73
2022/01/15 13:05:10;;;;;;;;;;;2.40;99.90;;;;;;5055706;28;19921;-73
2022/01/15 13:07:47;;;;;;;;;;;2.40;99.90;;;;;;5066041;28;19927;-73
2022/01/15 13:10:24;;;;;;;;;;;2.40;99.90;;;;;;5066245;28;19928;-73
2022/01/15 13:12:51;;;;;;;;;;;2.40;99.90;;;;;;5049545;28;19921;-73
2022/01/15 13:15:20;;;;;;;;;;;2.30;99.90;;;;;;5052854;28;19925;-71
2022/01/15 13:17:48;;;;;;;;;;;2.20;99.90;;;;;;5055050;28;19921;-72
2022/01/15 13:20:24;;;;;;;;;;;2.20;99.90;;;;;;5065845;28;20205;-72
2022/01/15 13:22:51;;;;;;;;;;;2.30;99.90;;;;;;5056387;28;20109;-72
2022/01/15 13:25:20;;;;;;;;;;;2.30;99.90;;;;;;5045426;28;20201;-72
2022/01/15 13:27:47;;;;;;;;;;;2.20;99.90;;;;;;5045954;28;19921;-72
2022/01/15 13:30:13;;;;;;;;;;;2.20;99.90;;;;;;5050147;28;19921;-71
2022/01/15 13:32:51;;;;;;;;;;;2.20;99.90;;;;;;5065640;28;20205;-72
2022/01/15 13:35:19;;;;;;;;;;;2.20;99.90;;;;;;5065761;28;20112;-73
2022/01/15 13:37:50;;;;;;;;;;;2.30;99.90;;;;;;5065667;28;19928;-72
2022/01/15 13:40:26;;;;;;;;;;;2.30;99.90;;;;;;5065225;28;19927;-72
2022/01/15 13:42:52;;;;;;;;;;;2.30;99.90;;;;;;5065654;28;19921;-72
2022/01/15 13:45:19;;;;;;;;;;;2.30;99.90;;;;;;5065374;28;20019;-73
2022/01/15 13:47:45;;;;;;;;;;;2.30;99.90;;;;;;5065343;28;19952;-72
2022/01/15 13:53:27;;;;;;;;;;;2.30;99.90;;;;;;5009057;28;19944;-73
2022/01/15 13:56:08;;;;;;;;;;;2.30;99.90;;;;;;5065421;28;19936;-73
2022/01/15 13:58:34;;;;;;;;;;;2.30;99.90;;;;;;5066007;28;19921;-75
2022/01/15 14:01:14;;;;;;;;;;;2.30;99.90;;;;;;5066052;28;20208;-73
2022/01/15 14:03:41;;;;;;;;;;;2.30;99.90;;;;;;5065947;28;19956;-73
2022/01/15 14:06:09;;;;;;;;;;;2.40;99.90;;;;;;5064152;28;19921;-74
2022/01/15 14:08:36;;;;;;;;;;;2.30;99.90;;;;;;5065062;28;19920;-74
2022/01/15 14:11:09;;;;;;;;;;;2.40;99.90;;;;;;5064124;28;21332;-74
2022/01/15 14:13:35;;;;;;;;;;;2.30;99.90;;;;;;5064897;28;19920;-74
2022/01/15 14:16:04;;;;;;;;;;;2.30;99.90;;;;;;5064560;28;19927;-74
2022/01/15 14:18:41;;;;;;;;;;;2.20;99.90;;;;;;5064534;28;19928;-74
2022/01/15 14:21:38;;;;;;;;;;;2.20;99.90;;;;;;5064637;28;19924;-74
2022/01/15 14:24:16;;;;;;;;;;;2.20;99.90;;;;;;5064053;28;19927;-74
2022/01/15 14:26:46;;;;;;;;;;;2.10;99.90;;;;;;5048271;28;19921;-71
2022/01/15 14:29:13;;;;;;;;;;;2.10;99.90;;;;;;5052147;28;19921;-74
2022/01/15 14:31:39;;;;;;;;;;;2.20;99.90;;;;;;5046348;28;19921;-74
2022/01/15 14:34:06;;;;;;;;;;;2.10;99.90;;;;;;5047881;28;19953;-76
2022/01/15 14:36:33;;;;;;;;;;;2.10;99.90;;;;;;5053675;28;20000;-73
2022/01/15 14:39:04;;;;;;;;;;;2.10;99.90;;;;;;5062570;28;19921;-74
2022/01/15 14:41:32;;;;;;;;;;;2.10;99.90;;;;;;5058541;28;19928;-74
2022/01/15 14:43:59;;;;;;;;;;;2.10;99.90;;;;;;5053207;28;19979;-74
2022/01/15 14:46:26;;;;;;;;;;;2.00;99.90;;;;;;5062243;28;19927;-72